createdAt,value
2023-03-30T00:01:24.286Z,6.37
2023-03-30T00:02:55.969Z,6.36
2023-03-30T00:04:27.919Z,6.34
2023-03-30T00:06:03.039Z,6.33
2023-03-30T00:07:39.364Z,6.31
2023-03-30T00:09:17.265Z,6.32
2023-03-30T00:10:48.884Z,6.31
2023-03-30T00:12:20.891Z,6.27
2023-03-30T00:13:53.177Z,6.22
2023-03-30T00:15:24.995Z,6.19
2023-03-30T00:16:57.158Z,6.18
2023-03-30T00:18:34.412Z,6.21
2023-03-30T00:20:14.741Z,6.18
2023-03-30T00:21:46.302Z,6.16
2023-03-30T00:23:18.276Z,6.15
2023-03-30T00:24:51.834Z,6.14
2023-03-30T00:26:23.514Z,6.13
2023-03-30T00:27:56.837Z,6.14
2023-03-30T00:29:28.806Z,6.17
2023-03-30T00:31:00.558Z,6.16
2023-03-30T00:32:32.600Z,6.22
2023-03-30T00:34:04.767Z,6.23
2023-03-30T00:35:36.819Z,6.25
2023-03-30T00:37:08.430Z,6.24
2023-03-30T00:38:40.892Z,6.23
2023-03-30T00:40:16.780Z,6.30
2023-03-30T00:41:48.675Z,6.30
2023-03-30T00:43:20.436Z,6.30
2023-03-30T00:45:11.064Z,6.28
2023-03-30T00:46:42.789Z,6.26
2023-03-30T00:48:15.482Z,6.26
2023-03-30T00:49:47.268Z,6.23
2023-03-30T00:51:19.057Z,6.21
2023-03-30T00:52:52.414Z,6.19
2023-03-30T00:54:24.587Z,6.15
2023-03-30T00:55:56.530Z,6.14
2023-03-30T00:57:28.407Z,6.25
2023-03-30T00:59:00.419Z,6.27
2023-03-30T01:00:33.231Z,6.25
2023-03-30T01:02:05.443Z,6.26
2023-03-30T01:03:37.908Z,6.27
2023-03-30T01:05:10.727Z,6.27
2023-03-30T01:06:43.547Z,6.36
2023-03-30T01:08:16.897Z,6.38
2023-03-30T01:09:48.456Z,6.40
2023-03-30T01:11:20.134Z,6.38
2023-03-30T01:12:51.736Z,6.36
2023-03-30T01:14:25.102Z,6.31
2023-03-30T01:16:11.571Z,6.30
2023-03-30T01:18:00.009Z,6.30
2023-03-30T01:19:43.824Z,6.32
2023-03-30T01:21:34.124Z,6.34
2023-03-30T01:23:27.667Z,6.33
2023-03-30T01:25:04.380Z,6.31
2023-03-30T01:26:46.541Z,6.31
2023-03-30T01:28:23.796Z,6.29
2023-03-30T01:30:15.040Z,6.26
2023-03-30T01:31:52.408Z,6.27
2023-03-30T01:33:23.994Z,6.28
2023-03-30T01:35:07.773Z,6.29
2023-03-30T01:36:39.391Z,6.27
2023-03-30T01:38:33.889Z,6.27
2023-03-30T01:40:13.568Z,6.27
2023-03-30T01:42:03.642Z,6.25
2023-03-30T01:43:35.141Z,6.25
2023-03-30T01:45:20.285Z,6.27
2023-03-30T01:46:53.093Z,6.27
2023-03-30T01:48:53.729Z,6.29
2023-03-30T01:50:27.579Z,6.29
2023-03-30T01:52:11.353Z,6.26
2023-03-30T01:53:46.976Z,6.26
2023-03-30T01:55:23.053Z,6.22
2023-03-30T01:56:55.284Z,6.19
2023-03-30T01:58:31.846Z,6.21
2023-03-30T02:00:14.434Z,6.18
2023-03-30T02:01:50.565Z,6.16
2023-03-30T02:03:26.730Z,6.12
2023-03-30T02:04:59.461Z,6.06
2023-03-30T02:06:39.028Z,6.00
2023-03-30T02:08:21.201Z,5.93
2023-03-30T02:09:53.790Z,5.88
2023-03-30T02:11:25.496Z,5.88
2023-03-30T02:12:57.400Z,5.88
2023-03-30T02:14:31.195Z,5.89
2023-03-30T02:16:09.017Z,5.89
2023-03-30T02:17:44.625Z,5.88
2023-03-30T02:19:17.131Z,5.90
2023-03-30T02:20:49.726Z,5.95
2023-03-30T02:22:24.041Z,5.97
2023-03-30T02:23:56.058Z,5.98
2023-03-30T02:25:30.048Z,5.98
2023-03-30T02:27:04.296Z,5.97
2023-03-30T02:28:35.834Z,6.01
2023-03-30T02:30:10.205Z,6.04
2023-03-30T02:31:42.282Z,6.07
2023-03-30T02:33:30.648Z,6.08
2023-03-30T02:35:22.818Z,6.07
2023-03-30T02:37:27.132Z,6.04
2023-03-30T02:39:14.696Z,5.99
2023-03-30T02:40:55.654Z,5.95
2023-03-30T02:42:27.265Z,5.93
2023-03-30T02:44:01.969Z,5.97
2023-03-30T02:45:37.787Z,5.97
2023-03-30T02:47:12.452Z,5.99
2023-03-30T02:48:56.813Z,6.01
2023-03-30T02:50:34.305Z,6.01
2023-03-30T02:52:24.708Z,5.98
2023-03-30T02:53:59.272Z,5.98
2023-03-30T02:55:34.670Z,5.99
2023-03-30T02:57:06.948Z,6.01
2023-03-30T02:58:44.648Z,6.04
2023-03-30T03:00:19.931Z,6.06
2023-03-30T03:01:51.508Z,6.05
2023-03-30T03:03:36.031Z,6.04
2023-03-30T03:05:08.367Z,6.04
2023-03-30T03:06:40.013Z,6.06
2023-03-30T03:08:17.847Z,6.06
2023-03-30T03:09:49.348Z,6.06
2023-03-30T03:11:29.899Z,6.06
2023-03-30T03:13:04.479Z,6.07
2023-03-30T03:14:40.055Z,6.04
2023-03-30T03:16:12.528Z,6.00
2023-03-30T03:17:45.449Z,6.01
2023-03-30T03:19:20.153Z,6.01
2023-03-30T03:21:01.189Z,6.04
2023-03-30T03:22:32.944Z,6.02
2023-03-30T03:24:14.212Z,5.98
2023-03-30T03:25:45.854Z,5.94
2023-03-30T03:27:18.266Z,5.96
2023-03-30T03:28:55.900Z,5.96
2023-03-30T03:32:14.569Z,5.96
2023-03-30T03:33:46.449Z,5.93
2023-03-30T03:35:18.333Z,5.88
2023-03-30T03:36:54.242Z,5.92
2023-03-30T03:38:26.362Z,5.89
2023-03-30T03:39:57.933Z,5.88
2023-03-30T03:41:32.421Z,5.85
2023-03-30T03:43:10.198Z,5.80
2023-03-30T03:44:42.059Z,5.76
2023-03-30T03:46:13.844Z,5.75
2023-03-30T03:47:45.883Z,5.79
2023-03-30T03:49:17.645Z,5.80
2023-03-30T03:50:56.097Z,5.81
2023-03-30T03:52:36.973Z,5.84
2023-03-30T03:54:08.725Z,5.88
2023-03-30T03:55:41.731Z,5.88
2023-03-30T03:57:16.008Z,5.91
2023-03-30T03:58:47.569Z,5.90
2023-03-30T04:00:23.451Z,5.89
2023-03-30T04:01:59.828Z,5.93
2023-03-30T04:03:31.617Z,5.88
2023-03-30T04:05:03.244Z,5.84
2023-03-30T04:06:34.755Z,5.81
2023-03-30T04:08:12.327Z,5.85
2023-03-30T04:09:43.811Z,5.87
2023-03-30T04:11:15.578Z,5.88
2023-03-30T04:12:50.276Z,5.88
2023-03-30T04:14:22.007Z,5.85
2023-03-30T04:16:01.411Z,5.77
2023-03-30T04:17:37.442Z,5.69
2023-03-30T04:19:09.251Z,5.62
2023-03-30T04:20:40.746Z,5.56
2023-03-30T04:22:13.825Z,5.54
2023-03-30T04:23:49.097Z,5.54
2023-03-30T04:25:22.746Z,5.50
2023-03-30T04:26:54.835Z,5.47
2023-03-30T04:28:59.392Z,5.43
2023-03-30T04:32:41.700Z,5.32
2023-03-30T04:34:13.884Z,5.30
2023-03-30T04:36:41.958Z,5.29
2023-03-30T04:42:59.482Z,5.22
2023-03-30T04:45:03.476Z,5.22
2023-03-30T04:50:44.157Z,5.45
2023-03-30T04:56:58.699Z,5.65
2023-03-30T05:00:35.139Z,5.74
2023-03-30T05:02:20.799Z,5.75
2023-03-30T05:07:52.200Z,5.80
2023-03-30T05:10:08.280Z,5.79
2023-03-30T05:11:56.789Z,5.81
2023-03-30T05:13:40.720Z,5.87
2023-03-30T05:15:21.724Z,5.93
2023-03-30T05:18:53.883Z,6.04
2023-03-30T05:20:28.957Z,6.08
2023-03-30T05:22:03.540Z,6.12
2023-03-30T05:23:35.226Z,6.16
2023-03-30T05:25:10.535Z,6.16
2023-03-30T05:26:48.459Z,6.21
2023-03-30T05:28:20.299Z,6.21
2023-03-30T05:30:14.103Z,6.22
2023-03-30T05:31:48.195Z,6.26
2023-03-30T05:33:20.129Z,6.29
2023-03-30T05:34:54.503Z,6.30
2023-03-30T05:36:29.067Z,6.32
2023-03-30T05:38:00.971Z,6.38
2023-03-30T05:39:36.457Z,6.41
2023-03-30T05:41:07.951Z,6.46
2023-03-30T05:42:45.618Z,6.49
2023-03-30T05:46:04.032Z,6.55
2023-03-30T05:47:45.888Z,6.58
2023-03-30T05:49:17.459Z,6.64
2023-03-30T05:50:53.607Z,6.69
2023-03-30T05:52:31.932Z,6.73
2023-03-30T05:56:00.059Z,6.78
2023-03-30T05:57:32.372Z,6.80
2023-03-30T05:59:08.330Z,6.82
2023-03-30T06:00:42.786Z,6.86
2023-03-30T06:02:15.253Z,6.91
2023-03-30T06:03:47.403Z,6.96
2023-03-30T06:05:19.469Z,6.99
2023-03-30T06:06:51.722Z,7.07
2023-03-30T06:08:23.565Z,7.05
2023-03-30T06:09:59.740Z,7.04
2023-03-30T06:11:31.902Z,7.04
2023-03-30T06:13:03.864Z,7.06
2023-03-30T06:14:35.430Z,7.12
2023-03-30T06:16:07.851Z,7.15
2023-03-30T06:17:39.462Z,7.19
2023-03-30T06:19:11.166Z,7.24
2023-03-30T06:20:42.820Z,7.29
2023-03-30T06:22:14.524Z,7.30
2023-03-30T06:23:46.425Z,7.25
2023-03-30T06:25:20.522Z,7.25
2023-03-30T06:26:52.452Z,7.35
2023-03-30T06:28:24.256Z,7.46
2023-03-30T06:29:56.451Z,7.53
2023-03-30T06:31:28.092Z,7.62
2023-03-30T06:33:00.595Z,7.66
2023-03-30T06:34:32.424Z,7.68
2023-03-30T06:36:04.227Z,7.74
2023-03-30T06:37:38.623Z,7.80
2023-03-30T06:39:10.944Z,7.87
2023-03-30T06:40:42.456Z,8.00
2023-03-30T06:42:13.973Z,8.11
2023-03-30T06:43:45.708Z,8.20
2023-03-30T06:45:17.340Z,8.31
2023-03-30T06:46:48.931Z,8.39
2023-03-30T06:48:20.950Z,8.44
2023-03-30T06:49:52.791Z,8.47
2023-03-30T06:51:24.736Z,8.47
2023-03-30T06:52:56.686Z,8.53
2023-03-30T06:54:28.346Z,8.61
2023-03-30T06:56:06.006Z,8.71
2023-03-30T06:57:37.645Z,8.73
2023-03-30T06:59:18.035Z,8.81
2023-03-30T07:02:37.980Z,8.87
2023-03-30T07:04:09.796Z,8.94
2023-03-30T07:07:32.751Z,8.98
2023-03-30T07:09:05.900Z,9.06
2023-03-30T07:10:38.763Z,9.13
2023-03-30T07:12:10.746Z,9.21
2023-03-30T07:13:42.274Z,9.29
2023-03-30T07:15:14.235Z,9.37
2023-03-30T07:16:46.010Z,9.52
2023-03-30T07:18:17.728Z,9.65
2023-03-30T07:19:49.705Z,9.76
2023-03-30T07:21:21.305Z,9.80
2023-03-30T07:22:52.940Z,9.91
2023-03-30T07:24:24.503Z,9.98
2023-03-30T07:25:56.590Z,10.03
2023-03-30T07:27:28.140Z,10.02
2023-03-30T07:28:59.777Z,9.98
2023-03-30T07:30:31.595Z,9.97
2023-03-30T07:32:03.447Z,10.08
2023-03-30T07:33:35.473Z,10.21
2023-03-30T07:35:08.961Z,10.36
2023-03-30T07:36:40.673Z,10.41
2023-03-30T07:38:13.111Z,10.42
2023-03-30T07:39:44.797Z,10.40
2023-03-30T07:41:16.720Z,10.43
2023-03-30T07:42:48.310Z,10.58
2023-03-30T07:44:20.011Z,10.72
2023-03-30T07:45:51.737Z,10.84
2023-03-30T07:47:23.802Z,11.03
2023-03-30T07:48:55.349Z,11.20
2023-03-30T07:50:26.953Z,11.26
2023-03-30T07:51:58.488Z,11.37
2023-03-30T07:53:30.013Z,11.37
2023-03-30T07:55:01.708Z,11.38
2023-03-30T07:56:33.751Z,11.45
2023-03-30T07:58:05.463Z,11.41
2023-03-30T07:59:37.178Z,11.25
2023-03-30T08:01:08.929Z,11.29
2023-03-30T08:02:40.798Z,11.36
2023-03-30T08:04:13.663Z,11.29
2023-03-30T08:05:51.988Z,11.24
2023-03-30T08:07:23.562Z,11.22
2023-03-30T08:08:55.280Z,11.28
2023-03-30T08:10:27.428Z,11.24
2023-03-30T08:11:59.146Z,11.22
2023-03-30T08:13:32.976Z,11.37
2023-03-30T08:15:04.883Z,11.56
2023-03-30T08:16:36.575Z,11.60
2023-03-30T08:18:08.546Z,11.65
2023-03-30T08:19:40.291Z,11.79
2023-03-30T08:21:12.295Z,11.89
2023-03-30T08:22:43.870Z,11.97
2023-03-30T08:24:16.096Z,12.00
2023-03-30T08:25:51.454Z,12.02
2023-03-30T08:27:23.076Z,12.09
2023-03-30T08:28:55.075Z,12.13
2023-03-30T08:30:26.621Z,12.21
2023-03-30T08:31:58.242Z,12.29
2023-03-30T08:33:30.096Z,12.35
2023-03-30T08:35:01.668Z,12.48
2023-03-30T08:36:33.157Z,12.54
2023-03-30T08:38:04.769Z,12.58
2023-03-30T08:39:37.602Z,12.63
2023-03-30T08:41:28.134Z,12.71
2023-03-30T08:43:02.852Z,12.72
2023-03-30T08:44:34.413Z,12.75
2023-03-30T08:46:06.174Z,12.72
2023-03-30T08:47:38.540Z,12.77
2023-03-30T08:49:12.999Z,12.80
2023-03-30T08:50:47.787Z,12.85
2023-03-30T08:52:21.943Z,12.95
2023-03-30T08:54:01.713Z,13.05
2023-03-30T08:55:40.483Z,13.14
2023-03-30T08:57:24.299Z,13.17
2023-03-30T08:58:56.021Z,13.16
2023-03-30T09:00:37.220Z,13.21
2023-03-30T09:02:16.702Z,13.32
2023-03-30T09:03:54.075Z,13.43
2023-03-30T09:05:26.873Z,13.55
2023-03-30T09:07:07.202Z,13.64
2023-03-30T09:08:48.073Z,13.61
2023-03-30T09:10:21.936Z,13.49
2023-03-30T09:12:10.593Z,13.40
2023-03-30T09:13:49.866Z,13.31
2023-03-30T09:15:27.655Z,13.31
2023-03-30T09:17:23.020Z,13.27
2023-03-30T09:18:57.800Z,13.30
2023-03-30T09:20:32.989Z,13.46
2023-03-30T09:22:05.945Z,13.50
2023-03-30T09:23:37.572Z,13.42
2023-03-30T09:25:32.700Z,13.47
2023-03-30T09:27:10.365Z,13.41
2023-03-30T09:28:57.814Z,13.28
2023-03-30T09:30:32.171Z,13.14
2023-03-30T09:32:22.433Z,13.08
2023-03-30T09:33:55.301Z,13.22
2023-03-30T09:35:29.483Z,13.39
2023-03-30T09:37:04.817Z,13.62
2023-03-30T09:38:42.027Z,13.89
2023-03-30T09:40:16.704Z,14.04
2023-03-30T09:41:51.840Z,14.15
2023-03-30T09:43:35.044Z,14.17
2023-03-30T09:45:22.841Z,14.16
2023-03-30T09:46:57.379Z,14.27
2023-03-30T09:48:29.143Z,14.47
2023-03-30T09:50:16.743Z,14.61
2023-03-30T09:52:14.179Z,14.72
2023-03-30T09:53:46.241Z,14.80
2023-03-30T09:55:28.613Z,14.82
2023-03-30T09:57:00.738Z,14.81
2023-03-30T09:58:33.249Z,14.86
2023-03-30T10:00:05.939Z,15.00
2023-03-30T10:01:38.656Z,15.04
2023-03-30T10:03:18.836Z,14.97
2023-03-30T10:04:55.270Z,14.94
2023-03-30T10:06:28.243Z,14.94
2023-03-30T10:08:00.348Z,14.85
2023-03-30T10:09:32.006Z,14.75
2023-03-30T10:11:06.345Z,14.79
2023-03-30T10:12:37.942Z,14.82
2023-03-30T10:14:21.216Z,14.80
2023-03-30T10:15:53.190Z,14.82
2023-03-30T10:17:25.417Z,14.85
2023-03-30T10:19:03.016Z,14.81
2023-03-30T10:20:37.574Z,14.88
2023-03-30T10:22:14.262Z,14.95
2023-03-30T10:23:46.722Z,15.06
2023-03-30T10:25:19.362Z,15.24
2023-03-30T10:27:09.918Z,15.46
2023-03-30T10:28:42.446Z,15.67
2023-03-30T10:30:17.704Z,15.77
2023-03-30T10:31:50.446Z,15.84
2023-03-30T10:33:21.963Z,15.84
2023-03-30T10:34:54.652Z,15.78
2023-03-30T10:36:29.578Z,15.70
2023-03-30T10:38:01.508Z,15.60
2023-03-30T10:39:34.205Z,15.53
2023-03-30T10:41:12.871Z,15.45
2023-03-30T10:42:44.731Z,15.18
2023-03-30T10:44:26.407Z,15.13
2023-03-30T10:46:06.341Z,15.17
2023-03-30T10:47:54.050Z,15.45
2023-03-30T10:49:25.782Z,15.70
2023-03-30T10:51:17.942Z,15.96
2023-03-30T10:52:58.381Z,16.23
2023-03-30T10:54:35.788Z,16.38
2023-03-30T10:56:07.448Z,16.40
2023-03-30T10:57:45.193Z,16.44
2023-03-30T10:59:35.697Z,16.55
2023-03-30T11:01:10.775Z,16.55
2023-03-30T11:02:42.398Z,16.56
2023-03-30T11:04:34.375Z,16.60
2023-03-30T11:06:06.513Z,16.59
2023-03-30T11:07:47.481Z,16.57
2023-03-30T11:09:20.302Z,16.54
2023-03-30T11:10:53.297Z,16.51
2023-03-30T11:12:25.881Z,16.54
2023-03-30T11:14:02.345Z,16.70
2023-03-30T11:15:36.225Z,16.89
2023-03-30T11:17:09.238Z,17.08
2023-03-30T11:19:00.531Z,17.30
2023-03-30T11:20:33.251Z,17.65
2023-03-30T11:22:19.926Z,17.91
2023-03-30T11:23:55.632Z,18.12
2023-03-30T11:25:28.531Z,18.28
2023-03-30T11:27:18.656Z,18.35
2023-03-30T11:29:02.725Z,18.41
2023-03-30T11:30:34.349Z,18.52
2023-03-30T11:32:06.081Z,18.64
2023-03-30T11:33:47.565Z,18.63
2023-03-30T11:35:19.220Z,18.39
2023-03-30T11:37:03.256Z,18.28
2023-03-30T11:38:44.575Z,17.92
2023-03-30T11:40:22.322Z,17.82
2023-03-30T11:42:04.168Z,17.76
2023-03-30T11:43:35.743Z,17.64
2023-03-30T11:45:30.620Z,17.66
2023-03-30T11:47:20.736Z,17.65
2023-03-30T11:49:11.496Z,17.63
2023-03-30T11:50:45.772Z,17.68
2023-03-30T11:52:17.446Z,17.60
2023-03-30T11:53:52.443Z,17.53
2023-03-30T11:55:47.617Z,17.48
2023-03-30T11:57:19.157Z,17.45
2023-03-30T11:59:06.506Z,17.44
2023-03-30T12:01:04.684Z,17.33
2023-03-30T12:02:42.375Z,17.29
2023-03-30T12:04:17.058Z,17.32
2023-03-30T12:06:07.306Z,17.35
2023-03-30T12:07:40.751Z,17.38
2023-03-30T12:09:12.379Z,17.26
2023-03-30T12:10:44.926Z,17.20
2023-03-30T12:12:22.492Z,17.18
2023-03-30T12:13:54.121Z,17.21
2023-03-30T12:15:46.624Z,17.20
2023-03-30T12:17:27.099Z,17.08
2023-03-30T12:19:03.821Z,17.04
2023-03-30T12:21:04.577Z,17.03
2023-03-30T12:22:48.185Z,17.10
2023-03-30T12:24:38.666Z,17.20
2023-03-30T12:26:10.466Z,17.49
2023-03-30T12:28:08.661Z,17.63
2023-03-30T12:30:01.661Z,17.64
2023-03-30T12:31:53.318Z,17.61
2023-03-30T12:33:28.938Z,17.54
2023-03-30T12:35:00.454Z,17.60
2023-03-30T12:36:38.958Z,17.70
2023-03-30T12:38:17.764Z,17.85
2023-03-30T12:39:59.169Z,17.97
2023-03-30T12:41:38.524Z,18.20
2023-03-30T12:43:20.842Z,18.37
2023-03-30T12:45:05.785Z,18.47
2023-03-30T12:46:58.675Z,18.61
2023-03-30T12:48:33.362Z,18.77
2023-03-30T12:50:14.849Z,18.83
2023-03-30T12:51:50.156Z,18.88
2023-03-30T12:53:24.505Z,18.95
2023-03-30T12:54:56.197Z,19.11
2023-03-30T12:56:37.316Z,19.28
2023-03-30T12:58:15.658Z,19.47
2023-03-30T13:00:09.389Z,19.66
2023-03-30T13:01:50.142Z,19.77
2023-03-30T13:03:21.627Z,19.72
2023-03-30T13:04:53.194Z,19.58
2023-03-30T13:06:34.805Z,19.22
2023-03-30T13:08:10.502Z,18.99
2023-03-30T13:10:11.669Z,18.95
2023-03-30T13:11:44.664Z,18.89
2023-03-30T13:13:17.279Z,18.89
2023-03-30T13:14:48.949Z,18.88
2023-03-30T13:16:39.236Z,18.83
2023-03-30T13:18:13.797Z,18.67
2023-03-30T13:20:12.705Z,18.65
2023-03-30T13:21:55.063Z,18.63
2023-03-30T13:23:27.596Z,18.67
2023-03-30T13:25:00.408Z,18.57
2023-03-30T13:26:42.163Z,18.64
2023-03-30T13:28:34.040Z,18.64
2023-03-30T13:30:08.354Z,18.59
2023-03-30T13:31:43.169Z,18.61
2023-03-30T13:33:15.758Z,18.75
2023-03-30T13:34:58.429Z,18.94
2023-03-30T13:36:39.719Z,19.15
2023-03-30T13:38:13.778Z,19.30
2023-03-30T13:39:52.881Z,19.31
2023-03-30T13:41:24.569Z,19.40
2023-03-30T13:43:15.317Z,19.55
2023-03-30T13:44:53.555Z,19.55
2023-03-30T13:46:41.867Z,19.58
2023-03-30T13:48:32.320Z,19.54
2023-03-30T13:50:07.081Z,19.50
2023-03-30T13:51:39.197Z,19.44
2023-03-30T13:53:11.115Z,19.34
2023-03-30T13:54:42.978Z,19.32
2023-03-30T13:56:14.527Z,19.32
2023-03-30T13:57:46.277Z,19.26
2023-03-30T13:59:20.666Z,19.05
2023-03-30T14:00:53.043Z,18.95
2023-03-30T14:02:25.202Z,18.97
2023-03-30T14:03:57.467Z,18.88
2023-03-30T14:05:29.077Z,18.92
2023-03-30T14:07:14.220Z,19.10
2023-03-30T14:08:47.984Z,19.28
2023-03-30T14:10:20.446Z,19.31
2023-03-30T14:11:52.975Z,19.22
2023-03-30T14:13:24.558Z,19.11
2023-03-30T14:14:56.275Z,18.90
2023-03-30T14:16:28.785Z,18.75
2023-03-30T14:18:01.033Z,18.70
2023-03-30T14:19:33.711Z,18.64
2023-03-30T14:21:05.816Z,18.54
2023-03-30T14:22:40.726Z,18.46
2023-03-30T14:24:18.964Z,18.39
2023-03-30T14:25:53.660Z,18.41
2023-03-30T14:27:25.655Z,18.44
2023-03-30T14:28:57.722Z,18.40
2023-03-30T14:30:29.698Z,18.40
2023-03-30T14:32:09.184Z,18.51
2023-03-30T14:33:41.691Z,18.48
2023-03-30T14:35:16.939Z,18.47
2023-03-30T14:36:48.698Z,18.49
2023-03-30T14:38:26.872Z,18.61
2023-03-30T14:39:58.402Z,18.75
2023-03-30T14:41:31.585Z,18.70
2023-03-30T14:43:03.851Z,18.57
2023-03-30T14:44:36.811Z,18.58
2023-03-30T14:46:09.632Z,18.72
2023-03-30T14:47:41.244Z,18.83
2023-03-30T14:49:18.593Z,18.82
2023-03-30T14:50:50.246Z,18.72
2023-03-30T14:52:22.946Z,18.49
2023-03-30T14:53:54.792Z,18.21
2023-03-30T14:55:26.406Z,18.03
2023-03-30T14:56:59.256Z,17.87
2023-03-30T14:58:31.983Z,17.86
2023-03-30T15:00:21.552Z,17.87
2023-03-30T15:01:53.804Z,17.83
2023-03-30T15:03:33.469Z,17.78
2023-03-30T15:05:05.897Z,17.73
2023-03-30T15:06:38.030Z,17.68
2023-03-30T15:08:28.377Z,17.65
2023-03-30T15:10:00.339Z,17.71
2023-03-30T15:11:32.096Z,17.74
2023-03-30T15:13:03.709Z,17.76
2023-03-30T15:14:36.450Z,17.76
2023-03-30T15:16:07.973Z,17.83
2023-03-30T15:17:39.828Z,17.96
2023-03-30T15:19:12.245Z,18.15
2023-03-30T15:20:43.740Z,18.22
2023-03-30T15:22:27.349Z,18.24
2023-03-30T15:24:00.563Z,18.23
2023-03-30T15:25:32.874Z,18.20
2023-03-30T15:27:06.145Z,18.14
2023-03-30T15:28:58.066Z,18.05
2023-03-30T15:30:31.407Z,17.94
2023-03-30T15:32:06.480Z,17.73
2023-03-30T15:33:45.517Z,17.64
2023-03-30T15:35:23.976Z,17.59
2023-03-30T15:36:56.008Z,17.54
2023-03-30T15:38:35.453Z,17.52
2023-03-30T15:40:30.385Z,17.50
2023-03-30T15:42:05.602Z,17.47
2023-03-30T15:43:37.138Z,17.43
2023-03-30T15:45:12.276Z,17.38
2023-03-30T15:46:43.867Z,17.32
2023-03-30T15:48:17.527Z,17.26
2023-03-30T15:49:49.706Z,17.20
2023-03-30T15:51:29.535Z,17.16
2023-03-30T15:53:01.861Z,17.14
2023-03-30T15:54:39.969Z,17.13
2023-03-30T15:56:12.954Z,17.11
2023-03-30T15:57:46.645Z,17.03
2023-03-30T15:59:18.871Z,16.94
2023-03-30T16:00:50.541Z,16.84
2023-03-30T16:02:23.596Z,16.77
2023-03-30T16:03:56.177Z,16.69
2023-03-30T16:05:32.061Z,16.65
2023-03-30T16:07:08.588Z,16.61
2023-03-30T16:08:43.586Z,16.50
2023-03-30T16:10:16.025Z,16.44
2023-03-30T16:11:47.584Z,16.44
2023-03-30T16:13:19.254Z,16.44
2023-03-30T16:14:50.964Z,16.40
2023-03-30T16:16:22.722Z,16.37
2023-03-30T16:17:54.395Z,16.34
2023-03-30T16:19:26.178Z,16.30
2023-03-30T16:20:57.798Z,16.23
2023-03-30T16:22:29.339Z,16.20
2023-03-30T16:24:00.905Z,16.14
2023-03-30T16:25:44.113Z,16.07
2023-03-30T16:27:16.953Z,16.01
2023-03-30T16:28:49.854Z,15.97
2023-03-30T16:30:22.143Z,15.94
2023-03-30T16:31:53.980Z,15.91
2023-03-30T16:33:25.895Z,15.89
2023-03-30T16:34:57.401Z,15.89
2023-03-30T16:36:29.527Z,15.88
2023-03-30T16:38:01.302Z,15.81
2023-03-30T16:39:33.074Z,15.78
2023-03-30T16:41:04.849Z,15.73
2023-03-30T16:42:36.622Z,15.74
2023-03-30T16:44:08.285Z,15.77
2023-03-30T16:45:39.912Z,15.78
2023-03-30T16:47:12.272Z,15.76
2023-03-30T16:48:43.890Z,15.73
2023-03-30T16:50:22.605Z,15.71
2023-03-30T16:51:57.578Z,15.68
2023-03-30T16:53:29.800Z,15.65
2023-03-30T16:55:01.369Z,15.66
2023-03-30T16:56:33.089Z,15.61
2023-03-30T16:58:05.468Z,15.48
2023-03-30T16:59:37.212Z,15.43
2023-03-30T17:01:13.304Z,15.35
2023-03-30T17:02:44.975Z,15.28
2023-03-30T17:04:17.014Z,15.22
2023-03-30T17:05:48.990Z,15.18
2023-03-30T17:07:20.823Z,15.11
2023-03-30T17:08:52.508Z,15.08
2023-03-30T17:10:25.562Z,15.04
2023-03-30T17:11:57.342Z,15.04
2023-03-30T17:13:29.003Z,15.01
2023-03-30T17:15:01.089Z,14.97
2023-03-30T17:16:34.311Z,14.98
2023-03-30T17:18:09.263Z,15.05
2023-03-30T17:19:40.898Z,15.03
2023-03-30T17:21:16.662Z,15.00
2023-03-30T17:22:48.804Z,14.96
2023-03-30T17:24:20.572Z,14.94
2023-03-30T17:25:52.728Z,14.94
2023-03-30T17:27:25.951Z,15.00
2023-03-30T17:28:57.586Z,15.00
2023-03-30T17:30:30.059Z,14.96
2023-03-30T17:32:01.876Z,14.96
2023-03-30T17:33:34.307Z,14.97
2023-03-30T17:35:06.787Z,14.96
2023-03-30T17:36:38.482Z,14.98
2023-03-30T17:38:10.000Z,14.98
2023-03-30T17:39:41.605Z,14.92
2023-03-30T17:41:13.446Z,14.88
2023-03-30T17:42:45.299Z,14.85
2023-03-30T17:44:16.884Z,14.84
2023-03-30T17:45:48.861Z,14.86
2023-03-30T17:47:20.425Z,14.85
2023-03-30T17:48:52.005Z,14.81
2023-03-30T17:50:23.778Z,14.78
2023-03-30T17:51:55.579Z,14.82
2023-03-30T17:53:27.154Z,14.83
2023-03-30T17:54:58.881Z,14.77
2023-03-30T17:56:31.219Z,14.75
2023-03-30T17:58:02.760Z,14.70
2023-03-30T17:59:34.529Z,14.64
2023-03-30T18:01:07.754Z,14.63
2023-03-30T18:02:40.071Z,14.64
2023-03-30T18:04:11.908Z,14.67
2023-03-30T18:05:46.396Z,14.62
2023-03-30T18:07:17.966Z,14.57
2023-03-30T18:08:49.896Z,14.51
2023-03-30T18:10:24.619Z,14.46
2023-03-30T18:11:56.236Z,14.45
2023-03-30T18:13:28.596Z,14.47
2023-03-30T18:15:00.337Z,14.47
2023-03-30T18:16:32.045Z,14.50
2023-03-30T18:18:04.089Z,14.52
2023-03-30T18:19:36.221Z,14.51
2023-03-30T18:21:09.150Z,14.47
2023-03-30T18:22:41.185Z,14.42
2023-03-30T18:24:12.768Z,14.44
2023-03-30T18:25:44.923Z,14.47
2023-03-30T18:27:16.547Z,14.47
2023-03-30T18:28:48.188Z,14.47
2023-03-30T18:30:21.347Z,14.44
2023-03-30T18:31:53.362Z,14.40
2023-03-30T18:33:25.160Z,14.39
2023-03-30T18:34:57.132Z,14.41
2023-03-30T18:36:28.963Z,14.39
2023-03-30T18:38:00.729Z,14.42
2023-03-30T18:39:32.475Z,14.40
2023-03-30T18:41:04.081Z,14.38
2023-03-30T18:42:35.713Z,14.32
2023-03-30T18:44:08.968Z,14.33
2023-03-30T18:45:41.223Z,14.36
2023-03-30T18:47:13.101Z,14.37
2023-03-30T18:48:45.015Z,14.37
2023-03-30T18:50:20.586Z,14.32
2023-03-30T18:51:52.711Z,14.22
2023-03-30T18:53:25.235Z,14.10
2023-03-30T18:54:57.998Z,14.02
2023-03-30T18:56:29.546Z,13.97
2023-03-30T18:58:02.675Z,13.93
2023-03-30T18:59:34.700Z,13.89
2023-03-30T19:01:06.924Z,13.87
2023-03-30T19:02:38.604Z,13.82
2023-03-30T19:04:10.384Z,13.75
2023-03-30T19:05:42.608Z,13.71
2023-03-30T19:07:14.730Z,13.67
2023-03-30T19:08:46.421Z,13.61
2023-03-30T19:10:18.844Z,13.58
2023-03-30T19:11:50.492Z,13.58
2023-03-30T19:13:23.070Z,13.56
2023-03-30T19:14:54.613Z,13.58
2023-03-30T19:16:26.307Z,13.59
2023-03-30T19:17:57.844Z,13.62
2023-03-30T19:19:30.206Z,13.65
2023-03-30T19:21:01.814Z,13.70
2023-03-30T19:22:33.398Z,13.77
2023-03-30T19:24:05.123Z,13.80
2023-03-30T19:25:37.062Z,13.77
2023-03-30T19:27:08.666Z,13.75
2023-03-30T19:28:40.687Z,13.69
2023-03-30T19:30:13.173Z,13.65
2023-03-30T19:31:45.230Z,13.65
2023-03-30T19:33:17.088Z,13.70
2023-03-30T19:34:48.779Z,13.74
2023-03-30T19:36:23.288Z,13.79
2023-03-30T19:37:57.320Z,13.83
2023-03-30T19:39:28.893Z,13.85
2023-03-30T19:41:01.054Z,13.86
2023-03-30T19:42:33.462Z,13.86
2023-03-30T19:44:05.179Z,13.87
2023-03-30T19:45:36.700Z,13.82
2023-03-30T19:47:09.080Z,13.81
2023-03-30T19:48:41.096Z,13.79
2023-03-30T19:50:15.562Z,13.84
2023-03-30T19:51:48.104Z,13.88
2023-03-30T19:53:19.754Z,13.87
2023-03-30T19:54:51.810Z,13.87
2023-03-30T19:56:25.045Z,13.84
2023-03-30T19:57:56.617Z,13.79
2023-03-30T19:59:28.830Z,13.80
2023-03-30T20:01:04.393Z,13.73
2023-03-30T20:02:36.478Z,13.64
2023-03-30T20:04:08.611Z,13.60
2023-03-30T20:05:40.268Z,13.54
2023-03-30T20:07:12.261Z,13.49
2023-03-30T20:08:44.453Z,13.45
2023-03-30T20:10:19.037Z,13.43
2023-03-30T20:11:51.335Z,13.42
2023-03-30T20:13:24.130Z,13.42
2023-03-30T20:14:56.215Z,13.41
2023-03-30T20:16:30.125Z,13.43
2023-03-30T20:18:01.848Z,13.39
2023-03-30T20:19:33.394Z,13.37
2023-03-30T20:21:05.148Z,13.38
2023-03-30T20:22:37.189Z,13.36
2023-03-30T20:24:08.905Z,13.31
2023-03-30T20:25:45.113Z,13.30
2023-03-30T20:27:17.126Z,13.32
2023-03-30T20:28:48.699Z,13.32
2023-03-30T20:30:20.728Z,13.28
2023-03-30T20:31:52.783Z,13.28
2023-03-30T20:33:24.465Z,13.25
2023-03-30T20:34:56.237Z,13.22
2023-03-30T20:36:28.911Z,13.22
2023-03-30T20:38:02.498Z,13.19
2023-03-30T20:39:35.350Z,13.16
2023-03-30T20:41:07.551Z,13.13
2023-03-30T20:42:44.461Z,13.12
2023-03-30T20:44:18.255Z,13.09
2023-03-30T20:45:56.028Z,13.07
2023-03-30T20:47:30.832Z,13.05
2023-03-30T20:49:02.676Z,13.03
2023-03-30T20:50:34.296Z,13.02
2023-03-30T20:52:05.897Z,12.99
2023-03-30T20:53:37.448Z,12.97
2023-03-30T20:55:09.326Z,12.96
2023-03-30T20:56:41.550Z,12.95
2023-03-30T20:58:13.815Z,12.94
2023-03-30T20:59:48.243Z,12.93
2023-03-30T21:01:25.489Z,12.94
2023-03-30T21:02:57.535Z,12.95
2023-03-30T21:04:29.169Z,12.96
2023-03-30T21:06:04.707Z,12.96
2023-03-30T21:07:38.615Z,12.99
2023-03-30T21:09:10.253Z,13.05
2023-03-30T21:10:42.866Z,13.14
2023-03-30T21:12:14.413Z,13.22
2023-03-30T21:13:46.594Z,13.32
2023-03-30T21:15:18.371Z,13.39